Observation data for Seagraves on 01/19/2019      Previous  Date  Next       Current Mesonet Observations  Soil Data  Daily Summary Page  Observations in Plain Language
KSGV 190600Z 34018KT 02/M01 A3008 RMK A01 T00221006  RH  083%=      5-min Rain = 0
KSGV 190605Z 34019KT 02/M01 A3008 RMK A01 T00211006  RH  083%=      5-min Rain = 0
KSGV 190610Z 34019KT 02/M01 A3008 RMK A01 T00211005  RH  083%=      5-min Rain = 0
KSGV 190615Z 34018KT 02/M01 A3008 RMK A01 T00211005  RH  084%=      5-min Rain = 0
KSGV 190620Z 34017G22KT 02/M00 A3009 RMK A01 T00221004  RH  084%=      5-min Rain = 0
KSGV 190625Z 33017G22KT 02/M00 A3009 RMK A01 T00231003  RH  084%=      5-min Rain = 0
KSGV 190630Z 34016G23KT 02/M00 A3009 RMK A01 T00241002  RH  084%=      5-min Rain = 0
KSGV 190635Z 33017G23KT 03/M00 A3009 RMK A01 T00261001  RH  083%=      5-min Rain = 0
KSGV 190640Z 33018G27KT 03/00 A301 RMK A01 T00290001  RH  083%=      5-min Rain = 0
KSGV 190645Z 33026G36KT 03/M00 A301 RMK A01 T00301004  RH  080%=      5-min Rain = 0
KSGV 190650Z 33025G32KT 03/M01 A3011 RMK A01 T00281011  RH  076%=      5-min Rain = 0
KSGV 190655Z 34025G32KT 03/M01 A3012 RMK A01 T00271012  RH  077%=      5-min Rain = 0
KSGV 190700Z 34023G32KT 03/M01 A3012 RMK A01 T00251012  RH  077%=      5-min Rain = 0
KSGV 190705Z 34018KT 03/M01 A3013 RMK A01 T00251011  RH  078%=      5-min Rain = 0
KSGV 190710Z 33019G26KT 03/M01 A3013 RMK A01 T00261010  RH  078%=      5-min Rain = 0
KSGV 190715Z 34020G25KT 02/M01 A3013 RMK A01 T00241013  RH  077%=      5-min Rain = 0
KSGV 190720Z 34020KT 02/M02 A3013 RMK A01 T00221016  RH  077%=      5-min Rain = 0
KSGV 190725Z 34019G26KT 02/M02 A3013 RMK A01 T00211017  RH  077%=      5-min Rain = 0
KSGV 190730Z 34019G26KT 02/M02 A3014 RMK A01 T00201019  RH  076%=      5-min Rain = 0
KSGV 190735Z 34018G25KT 02/M02 A3014 RMK A01 T00201020  RH  075%=      5-min Rain = 0
KSGV 190740Z 34019KT 02/M02 A3014 RMK A01 T00201021  RH  075%=      5-min Rain = 0
KSGV 190745Z 34019G25KT 02/M02 A3014 RMK A01 T00201021  RH  075%=      5-min Rain = 0
KSGV 190750Z 34016G22KT 02/M02 A3014 RMK A01 T00191020  RH  076%=      5-min Rain = 0
KSGV 190755Z 34016G22KT 02/M02 A3015 RMK A01 T00181019  RH  077%=      5-min Rain = 0
KSGV 190800Z 34015G20KT 02/M02 A3015 RMK A01 T00181019  RH  077%=      5-min Rain = 0
KSGV 190805Z 33015G21KT 02/M02 A3015 RMK A01 T00171018  RH  078%=      5-min Rain = 0
KSGV 190810Z 33020G26KT 02/M02 A3015 RMK A01 T00191019  RH  076%=      5-min Rain = 0
KSGV 190815Z 34021G30KT 02/M02 A3016 RMK A01 T00191024  RH  074%=      5-min Rain = 0
KSGV 190820Z 35022G29KT 02/M03 A3016 RMK A01 T00191028  RH  072%=      5-min Rain = 0
KSGV 190825Z 34019G28KT 02/M03 A3016 RMK A01 T00191029  RH  071%=      5-min Rain = 0
KSGV 190830Z 33018G26KT 02/M03 A3016 RMK A01 T00181028  RH  072%=      5-min Rain = 0
KSGV 190835Z 34019G25KT 02/M03 A3016 RMK A01 T00181027  RH  073%=      5-min Rain = 0
KSGV 190840Z 34018G23KT 02/M03 A3016 RMK A01 T00171028  RH  072%=      5-min Rain = 0
KSGV 190845Z 33017G24KT 02/M03 A3017 RMK A01 T00161028  RH  073%=      5-min Rain = 0
KSGV 190850Z 33018G24KT 02/M03 A3017 RMK A01 T00171028  RH  073%=      5-min Rain = 0
KSGV 190855Z 33018G23KT 02/M03 A3017 RMK A01 T00171028  RH  073%=      5-min Rain = 0
KSGV 190900Z 33018G23KT 02/M03 A3017 RMK A01 T00171028  RH  072%=      5-min Rain = 0
KSGV 190905Z 33017KT 02/M03 A3017 RMK A01 T00171028  RH  073%=      5-min Rain = 0
KSGV 190910Z 33016G22KT 02/M03 A3018 RMK A01 T00171027  RH  073%=      5-min Rain = 0
KSGV 190915Z 33017KT 02/M03 A3018 RMK A01 T00161027  RH  073%=      5-min Rain = 0
KSGV 190920Z 33017G23KT 02/M03 A3018 RMK A01 T00171027  RH  073%=      5-min Rain = 0
KSGV 190925Z 33019KT 02/M03 A3018 RMK A01 T00181027  RH  072%=      5-min Rain = 0
KSGV 190930Z 33018G24KT 02/M03 A3018 RMK A01 T00181027  RH  072%=      5-min Rain = 0
KSGV 190935Z 33017G23KT 02/M03 A3018 RMK A01 T00171028  RH  073%=      5-min Rain = 0
KSGV 190940Z 33018G23KT 02/M03 A3018 RMK A01 T00171028  RH  073%=      5-min Rain = 0
KSGV 190945Z 34019G24KT 02/M03 A3018 RMK A01 T00181027  RH  073%=      5-min Rain = 0
KSGV 190950Z 33020G26KT 02/M03 A3018 RMK A01 T00181028  RH  072%=      5-min Rain = 0
KSGV 190955Z 33020KT 02/M03 A3018 RMK A01 T00181028  RH  072%=      5-min Rain = 0
KSGV 191000Z 33020G25KT 02/M03 A3019 RMK A01 T00191029  RH  071%=      5-min Rain = 0
KSGV 191005Z 33018G25KT 02/M03 A3019 RMK A01 T00191029  RH  071%=      5-min Rain = 0
KSGV 191010Z 33018KT 02/M03 A3019 RMK A01 T00181029  RH  072%=      5-min Rain = 0
KSGV 191015Z 33017KT 02/M03 A3019 RMK A01 T00171029  RH  072%=      5-min Rain = 0
KSGV 191020Z 33017G22KT 02/M03 A3019 RMK A01 T00161029  RH  073%=      5-min Rain = 0
KSGV 191025Z 33017G23KT 02/M03 A3019 RMK A01 T00151029  RH  073%=      5-min Rain = 0
KSGV 191030Z 33016G21KT 02/M03 A3019 RMK A01 T00151029  RH  073%=      5-min Rain = 0
KSGV 191035Z 33017KT 02/M03 A3019 RMK A01 T00151030  RH  073%=      5-min Rain = 0
KSGV 191040Z 33016G21KT 02/M03 A3019 RMK A01 T00151030  RH  073%=      5-min Rain = 0
KSGV 191045Z 33016G21KT 02/M03 A3019 RMK A01 T00151030  RH  073%=      5-min Rain = 0
KSGV 191050Z 33016G21KT 02/M03 A3019 RMK A01 T00151030  RH  073%=      5-min Rain = 0
KSGV 191055Z 33016KT 02/M03 A3019 RMK A01 T00161030  RH  072%=      5-min Rain = 0
KSGV 191100Z 34015G20KT 02/M03 A3019 RMK A01 T00161030  RH  072%=      5-min Rain = 0
KSGV 191105Z 33015G20KT 02/M03 A3019 RMK A01 T00161030  RH  072%=      5-min Rain = 0
KSGV 191110Z 33014KT 02/M03 A302 RMK A01 T00151031  RH  072%=      5-min Rain = 0
KSGV 191115Z 33015KT 02/M03 A302 RMK A01 T00161031  RH  072%=      5-min Rain = 0
KSGV 191120Z 33014KT 02/M03 A302 RMK A01 T00161031  RH  072%=      5-min Rain = 0
KSGV 191125Z 33013G18KT 02/M03 A302 RMK A01 T00161031  RH  072%=      5-min Rain = 0
KSGV 191130Z 33012KT 02/M03 A302 RMK A01 T00151031  RH  072%=      5-min Rain = 0
KSGV 191135Z 33012KT 02/M03 A302 RMK A01 T00151031  RH  072%=      5-min Rain = 0
KSGV 191140Z 32011KT 01/M03 A302 RMK A01 T00141032  RH  072%=      5-min Rain = 0
KSGV 191145Z 32010KT 01/M03 A302 RMK A01 T00111033  RH  073%=      5-min Rain = 0
KSGV 191150Z 32009KT 01/M03 A3021 RMK A01 T00091033  RH  074%=      5-min Rain = 0
KSGV 191155Z 32009KT 01/M03 A3021 RMK A01 T00081033  RH  075%=      5-min Rain = 0
KSGV 191200Z 32008KT 01/M03 A3021 RMK A01 T00071033  RH  075%=      5-min Rain = 0
KSGV 191205Z 32008KT 01/M03 A3021 RMK A01 T00051033  RH  076%=      5-min Rain = 0
KSGV 191210Z 31008KT 00/M04 A3022 RMK A01 T00031035  RH  076%=      5-min Rain = 0
KSGV 191215Z 30007KT M00/M04 A3022 RMK A01 T10011036  RH  078%=      5-min Rain = 0
KSGV 191220Z 30007KT M00/M04 A3023 RMK A01 T10041036  RH  079%=      5-min Rain = 0
KSGV 191225Z 29008KT M01/M04 A3023 RMK A01 T10071037  RH  080%=      5-min Rain = 0
KSGV 191230Z 29007KT M01/M04 A3023 RMK A01 T10081037  RH  081%=      5-min Rain = 0
KSGV 191235Z 29008KT M01/M04 A3024 RMK A01 T10091037  RH  082%=      5-min Rain = 0
KSGV 191240Z 29008KT M01/M04 A3024 RMK A01 T10091036  RH  082%=      5-min Rain = 0
KSGV 191245Z 29007KT M01/M04 A3024 RMK A01 T10111038  RH  082%=      5-min Rain = 0
KSGV 191250Z 29007KT M02/M04 A3025 RMK A01 T10161041  RH  083%=      5-min Rain = 0
KSGV 191255Z 29008KT M02/M04 A3025 RMK A01 T10171040  RH  085%=      5-min Rain = 0
KSGV 191300Z 29008KT M02/M04 A3025 RMK A01 T10161038  RH  085%=      5-min Rain = 0
KSGV 191305Z 29008KT M01/M04 A3025 RMK A01 T10141037  RH  085%=      5-min Rain = 0
KSGV 191310Z 29008KT M01/M04 A3026 RMK A01 T10141037  RH  085%=      5-min Rain = 0
KSGV 191315Z 29008KT M01/M04 A3026 RMK A01 T10141037  RH  085%=      5-min Rain = 0
KSGV 191320Z 30008KT M01/M04 A3026 RMK A01 T10141037  RH  085%=      5-min Rain = 0
KSGV 191325Z 30008KT M01/M04 A3027 RMK A01 T10141037  RH  085%=      5-min Rain = 0
KSGV 191330Z 30008KT M01/M04 A3027 RMK A01 T10141036  RH  085%=      5-min Rain = 0
KSGV 191335Z 31008KT M01/M04 A3027 RMK A01 T10131036  RH  085%=      5-min Rain = 0
KSGV 191340Z 31008KT M01/M04 A3027 RMK A01 T10121036  RH  084%=      5-min Rain = 0
KSGV 191345Z 31010KT M01/M04 A3027 RMK A01 T10101036  RH  083%=      5-min Rain = 0
KSGV 191350Z 31010KT M01/M04 A3027 RMK A01 T10101036  RH  083%=      5-min Rain = 0
KSGV 191355Z 31010KT M01/M04 A3028 RMK A01 T10101036  RH  083%=      5-min Rain = 0
KSGV 191400Z 31010KT M01/M04 A3028 RMK A01 T10091036  RH  083%=      5-min Rain = 0
KSGV 191405Z 31011KT M01/M04 A3028 RMK A01 T10081035  RH  082%=      5-min Rain = 0
KSGV 191410Z 31011KT M01/M04 A3028 RMK A01 T10061035  RH  081%=      5-min Rain = 0
KSGV 191415Z 31010KT M01/M04 A3029 RMK A01 T10061035  RH  081%=      5-min Rain = 0
KSGV 191420Z 30010KT M00/M03 A3029 RMK A01 T10031034  RH  080%=      5-min Rain = 0
KSGV 191425Z 31010KT M00/M03 A3029 RMK A01 T10021034  RH  080%=      5-min Rain = 0
KSGV 191430Z 31010KT 00/03 A303 RMK A01 T00000-33  RH  079%=      5-min Rain = 0
KSGV 191435Z 31010KT 00/M03 A303 RMK A01 T00031033  RH  078%=      5-min Rain = 0
KSGV 191440Z 31010KT 01/M03 A303 RMK A01 T00061032  RH  076%=      5-min Rain = 0
KSGV 191445Z 31011KT 01/M03 A303 RMK A01 T00111031  RH  074%=      5-min Rain = 0
KSGV 191450Z 32013KT 02/M03 A303 RMK A01 T00151030  RH  072%=      5-min Rain = 0
KSGV 191455Z 32012KT 02/M03 A303 RMK A01 T00191030  RH  070%=      5-min Rain = 0
KSGV 191500Z 32013KT 02/M03 A3031 RMK A01 T00231029  RH  069%=      5-min Rain = 0
KSGV 191505Z 32013KT 03/M03 A3031 RMK A01 T00251029  RH  068%=      5-min Rain = 0
KSGV 191510Z 32014KT 03/M03 A3031 RMK A01 T00281029  RH  067%=      5-min Rain = 0
KSGV 191515Z 32014KT 03/M03 A3031 RMK A01 T00321028  RH  065%=      5-min Rain = 0
KSGV 191520Z 33014KT 04/M03 A3031 RMK A01 T00391029  RH  062%=      5-min Rain = 0
KSGV 191525Z 33014KT 04/M03 A3031 RMK A01 T00441029  RH  059%=      5-min Rain = 0
KSGV 191530Z 33014KT 05/M03 A3031 RMK A01 T00451031  RH  058%=      5-min Rain = 0
KSGV 191535Z 33015KT 05/M03 A3032 RMK A01 T00491030  RH  057%=      5-min Rain = 0
KSGV 191540Z 33015KT 05/M03 A3032 RMK A01 T00521031  RH  055%=      5-min Rain = 0
KSGV 191545Z 33015KT 05/M03 A3032 RMK A01 T00541031  RH  055%=      5-min Rain = 0
KSGV 191550Z 34014KT 06/M03 A3033 RMK A01 T00571030  RH  054%=      5-min Rain = 0
KSGV 191555Z 33016KT 06/M03 A3033 RMK A01 T00591031  RH  053%=      5-min Rain = 0
KSGV 191600Z 34017KT 06/M03 A3033 RMK A01 T00601032  RH  052%=      5-min Rain = 0
KSGV 191605Z 34015KT 07/M03 A3033 RMK A01 T00651032  RH  050%=      5-min Rain = 0
KSGV 191610Z 34016G21KT 07/M04 A3033 RMK A01 T00661035  RH  049%=      5-min Rain = 0
KSGV 191615Z 34016G21KT 07/M03 A3034 RMK A01 T00671034  RH  049%=      5-min Rain = 0
KSGV 191620Z 35017KT 07/M04 A3034 RMK A01 T00671035  RH  048%=      5-min Rain = 0
KSGV 191625Z 34016KT 07/M03 A3034 RMK A01 T00691034  RH  048%=      5-min Rain = 0
KSGV 191630Z 34016G22KT 07/M03 A3034 RMK A01 T00701034  RH  048%=      5-min Rain = 0
KSGV 191635Z 34015G20KT 07/M03 A3034 RMK A01 T00701032  RH  048%=      5-min Rain = 0
KSGV 191640Z 34014G20KT 07/M03 A3034 RMK A01 T00711031  RH  049%=      5-min Rain = 0
KSGV 191645Z 34013G18KT 08/M03 A3035 RMK A01 T00761027  RH  048%=      5-min Rain = 0
KSGV 191650Z 34014KT 08/M03 A3035 RMK A01 T00781028  RH  047%=      5-min Rain = 0
KSGV 191655Z 35015G21KT 08/M03 A3035 RMK A01 T00801029  RH  046%=      5-min Rain = 0
KSGV 191700Z 01014G19KT 08/M03 A3035 RMK A01 T00811032  RH  045%=      5-min Rain = 0
KSGV 191705Z 35014G20KT 08/M03 A3035 RMK A01 T00841031  RH  045%=      5-min Rain = 0
KSGV 191710Z 34015G20KT 09/M03 A3035 RMK A01 T00851031  RH  044%=      5-min Rain = 0
KSGV 191715Z 35015G21KT 09/M03 A3034 RMK A01 T00851032  RH  044%=      5-min Rain = 0
KSGV 191720Z 34014KT 09/M03 A3035 RMK A01 T00861031  RH  044%=      5-min Rain = 0
KSGV 191725Z 34013KT 09/M03 A3035 RMK A01 T00891030  RH  043%=      5-min Rain = 0
KSGV 191730Z 34013G18KT 09/M03 A3035 RMK A01 T00911032  RH  042%=      5-min Rain = 0
KSGV 191735Z 35012KT 09/M03 A3035 RMK A01 T00891033  RH  042%=      5-min Rain = 0
KSGV 191740Z 34013G18KT 09/M03 A3035 RMK A01 T00931031  RH  042%=      5-min Rain = 0
KSGV 191745Z 34013G18KT 09/M03 A3035 RMK A01 T00931032  RH  042%=      5-min Rain = 0
KSGV 191750Z 34015KT 09/M03 A3035 RMK A01 T00931032  RH  042%=      5-min Rain = 0
KSGV 191755Z 34012KT 10/M03 A3035 RMK A01 T00951031  RH  041%=      5-min Rain = 0
KSGV 191800Z 34012KT 10/M03 A3035 RMK A01 T00981029  RH  041%=      5-min Rain = 0
KSGV 191805Z 33010KT 10/M03 A3035 RMK A01 T00981030  RH  041%=      5-min Rain = 0
KSGV 191810Z 34010G17KT 10/M03 A3035 RMK A01 T00991028  RH  041%=      5-min Rain = 0
KSGV 191815Z 32010G15KT 10/M03 A3035 RMK A01 T01001030  RH  040%=      5-min Rain = 0
KSGV 191820Z 33013KT 10/M03 A3034 RMK A01 T01011028  RH  041%=      5-min Rain = 0
KSGV 191825Z 33011G17KT 10/M03 A3034 RMK A01 T01031028  RH  040%=      5-min Rain = 0
KSGV 191830Z 33013G19KT 11/M03 A3034 RMK A01 T01061028  RH  039%=      5-min Rain = 0
KSGV 191835Z 31010KT 11/M03 A3034 RMK A01 T01051028  RH  039%=      5-min Rain = 0
KSGV 191840Z 32011G21KT 11/M03 A3033 RMK A01 T01081026  RH  039%=      5-min Rain = 0
KSGV 191845Z 34011KT 11/M03 A3033 RMK A01 T01111028  RH  038%=      5-min Rain = 0
KSGV 191850Z 34012KT 11/M03 A3033 RMK A01 T01071028  RH  039%=      5-min Rain = 0
KSGV 191855Z 33011KT 11/M03 A3033 RMK A01 T01071028  RH  039%=      5-min Rain = 0
KSGV 191900Z 32011G16KT 11/M03 A3032 RMK A01 T01111028  RH  038%=      5-min Rain = 0
KSGV 191905Z 32007G15KT 11/M03 A3032 RMK A01 T01121027  RH  038%=      5-min Rain = 0
KSGV 191910Z 33010KT 11/M03 A3032 RMK A01 T01131028  RH  038%=      5-min Rain = 0
KSGV 191915Z 32010G15KT 11/M03 A3032 RMK A01 T01131028  RH  037%=      5-min Rain = 0
KSGV 191920Z 34010KT 11/M03 A3032 RMK A01 T01141027  RH  038%=      5-min Rain = 0
KSGV 191925Z 33008G16KT 11/M03 A3031 RMK A01 T01121027  RH  038%=      5-min Rain = 0
KSGV 191930Z 34010G15KT 12/M03 A3031 RMK A01 T01171026  RH  037%=      5-min Rain = 0
KSGV 191935Z 32009G14KT 12/M03 A303 RMK A01 T01171027  RH  037%=      5-min Rain = 0
KSGV 191940Z 32005KT 12/M03 A303 RMK A01 T01151028  RH  037%=      5-min Rain = 0
KSGV 191945Z 29010KT 12/M03 A303 RMK A01 T01191031  RH  035%=      5-min Rain = 0
KSGV 191950Z 31011G16KT 12/M03 A3029 RMK A01 T01221033  RH  034%=      5-min Rain = 0
KSGV 191955Z 31009G15KT 12/M03 A3029 RMK A01 T01231034  RH  034%=      5-min Rain = 0
KSGV 192000Z 31008G14KT 12/M03 A3029 RMK A01 T01221034  RH  034%=      5-min Rain = 0
KSGV 192005Z 31009KT 13/M03 A3029 RMK A01 T01261034  RH  033%=      5-min Rain = 0
KSGV 192010Z 29009KT 13/M04 A3028 RMK A01 T01261035  RH  032%=      5-min Rain = 0
KSGV 192015Z 31008KT 13/M04 A3028 RMK A01 T01251037  RH  032%=      5-min Rain = 0
KSGV 192020Z 32009G15KT 13/M04 A3028 RMK A01 T01271038  RH  032%=      5-min Rain = 0
KSGV 192025Z 31006G11KT 13/M04 A3028 RMK A01 T01281036  RH  032%=      5-min Rain = 0
KSGV 192030Z 31009G14KT 13/M04 A3027 RMK A01 T01301041  RH  030%=      5-min Rain = 0
KSGV 192035Z 30007KT 13/M04 A3027 RMK A01 T01311043  RH  030%=      5-min Rain = 0
KSGV 192040Z 30009G15KT 13/M04 A3027 RMK A01 T01321044  RH  029%=      5-min Rain = 0
KSGV 192045Z 31010G16KT 14/M05 A3026 RMK A01 T01351049  RH  028%=      5-min Rain = 0
KSGV 192050Z 31009KT 14/M06 A3026 RMK A01 T01351064  RH  024%=      5-min Rain = 0
KSGV 192055Z 30007G12KT 14/M06 A3026 RMK A01 T01351060  RH  025%=      5-min Rain = 0
KSGV 192100Z 30007KT 14/M05 A3026 RMK A01 T01351054  RH  026%=      5-min Rain = 0
KSGV 192105Z 29009G14KT 14/M06 A3025 RMK A01 T01381056  RH  026%=      5-min Rain = 0
KSGV 192110Z 32010KT 14/M06 A3025 RMK A01 T01391061  RH  025%=      5-min Rain = 0
KSGV 192115Z 33008KT 13/M06 A3025 RMK A01 T01341063  RH  025%=      5-min Rain = 0
KSGV 192120Z 31010KT 14/M06 A3025 RMK A01 T01361061  RH  025%=      5-min Rain = 0
KSGV 192125Z 30009KT 14/M07 A3025 RMK A01 T01361065  RH  024%=      5-min Rain = 0
KSGV 192130Z 30006G11KT 14/M06 A3025 RMK A01 T01351063  RH  025%=      5-min Rain = 0
KSGV 192135Z 32009G14KT 14/M06 A3025 RMK A01 T01381063  RH  024%=      5-min Rain = 0
KSGV 192140Z 32008G13KT 14/M07 A3025 RMK A01 T01361068  RH  024%=      5-min Rain = 0
KSGV 192145Z 35011KT 14/M07 A3025 RMK A01 T01371068  RH  023%=      5-min Rain = 0
KSGV 192150Z 34008KT 14/M07 A3025 RMK A01 T01361066  RH  024%=      5-min Rain = 0
KSGV 192155Z 33009KT 14/M07 A3025 RMK A01 T01361067  RH  024%=      5-min Rain = 0
KSGV 192200Z 28007G12KT 14/M07 A3025 RMK A01 T01381065  RH  024%=      5-min Rain = 0
KSGV 192205Z 30007KT 14/M07 A3024 RMK A01 T01381067  RH  024%=      5-min Rain = 0
KSGV 192210Z 33005KT 14/M07 A3024 RMK A01 T01361069  RH  023%=      5-min Rain = 0
KSGV 192215Z 33008G13KT 14/M07 A3024 RMK A01 T01371069  RH  023%=      5-min Rain = 0
KSGV 192220Z 32008G14KT 14/M07 A3024 RMK A01 T01361068  RH  024%=      5-min Rain = 0
KSGV 192225Z 33008G13KT 14/M07 A3024 RMK A01 T01371067  RH  024%=      5-min Rain = 0
KSGV 192230Z 32008KT 14/M07 A3024 RMK A01 T01361066  RH  024%=      5-min Rain = 0
KSGV 192235Z 33009KT 14/M07 A3024 RMK A01 T01351065  RH  024%=      5-min Rain = 0
KSGV 192240Z 32007KT 13/M07 A3024 RMK A01 T01341066  RH  024%=      5-min Rain = 0
KSGV 192245Z 33006KT 14/M07 A3024 RMK A01 T01351065  RH  024%=      5-min Rain = 0
KSGV 192250Z 32006KT 13/M07 A3024 RMK A01 T01341067  RH  024%=      5-min Rain = 0
KSGV 192255Z 30008KT 14/M07 A3024 RMK A01 T01351068  RH  024%=      5-min Rain = 0
KSGV 192300Z 29008KT 13/M07 A3024 RMK A01 T01331072  RH  023%=      5-min Rain = 0
KSGV 192305Z 29006KT 13/M07 A3025 RMK A01 T01331070  RH  024%=      5-min Rain = 0
KSGV 192310Z 30005KT 13/M07 A3025 RMK A01 T01341068  RH  024%=      5-min Rain = 0
KSGV 192315Z 31004KT 13/M07 A3025 RMK A01 T01321068  RH  024%=      5-min Rain = 0
KSGV 192320Z 32004KT 13/M07 A3025 RMK A01 T01311067  RH  025%=      5-min Rain = 0
KSGV 192325Z 32006KT 13/M07 A3025 RMK A01 T01271065  RH  026%=      5-min Rain = 0
KSGV 192330Z 29005KT 12/M06 A3025 RMK A01 T01231060  RH  027%=      5-min Rain = 0
KSGV 192335Z 28006KT 12/M07 A3025 RMK A01 T01211067  RH  026%=      5-min Rain = 0
KSGV 192340Z 30004KT 12/M07 A3025 RMK A01 T01181066  RH  027%=      5-min Rain = 0
KSGV 192345Z 32004KT 11/M06 A3025 RMK A01 T01121061  RH  029%=      5-min Rain = 0
KSGV 192350Z 32004KT 11/M06 A3025 RMK A01 T01091062  RH  030%=      5-min Rain = 0
KSGV 192355Z 32004KT 11/M06 A3025 RMK A01 T01071062  RH  030%=      5-min Rain = 0
KSGV 200000Z 31003KT 11/M06 A3024 RMK A01 T01051060  RH  031%=      5-min Rain = 0
KSGV 200005Z 30003KT 10/M06 A3024 RMK A01 T01041060  RH  031%=      5-min Rain = 0
KSGV 200010Z 24002KT 10/M06 A3025 RMK A01 T01001061  RH  031%=      5-min Rain = 0
KSGV 200015Z 23001KT 09/M06 A3025 RMK A01 T00941063  RH  033%=      5-min Rain = 0
KSGV 200020Z 24001KT 09/M06 A3025 RMK A01 T00921061  RH  033%=      5-min Rain = 0
KSGV 200025Z 24001KT 09/M06 A3025 RMK A01 T00921064  RH  033%=      5-min Rain = 0
KSGV 200030Z 24000KT 09/M06 A3025 RMK A01 T00891063  RH  034%=      5-min Rain = 0
KSGV 200035Z 24000KT 09/M07 A3025 RMK A01 T00871066  RH  033%=      5-min Rain = 0
KSGV 200040Z 00000KT 09/M07 A3025 RMK A01 T00871067  RH  033%=      5-min Rain = 0
KSGV 200045Z 24000KT 09/M07 A3026 RMK A01 T00851067  RH  033%=      5-min Rain = 0
KSGV 200050Z 00000KT 08/M07 A3025 RMK A01 T00841067  RH  034%=      5-min Rain = 0
KSGV 200055Z 00000KT 08/M07 A3026 RMK A01 T00791067  RH  035%=      5-min Rain = 0
KSGV 200100Z 24000KT 08/M07 A3026 RMK A01 T00761065  RH  036%=      5-min Rain = 0
KSGV 200105Z 24001KT 07/M06 A3026 RMK A01 T00691061  RH  039%=      5-min Rain = 0
KSGV 200110Z 03003KT 07/M06 A3026 RMK A01 T00661061  RH  040%=      5-min Rain = 0
KSGV 200115Z 07004KT 07/M06 A3026 RMK A01 T00701060  RH  039%=      5-min Rain = 0
KSGV 200120Z 08003KT 07/M06 A3026 RMK A01 T00681061  RH  039%=      5-min Rain = 0
KSGV 200125Z 13002KT 04/M06 A3026 RMK A01 T00411064  RH  046%=      5-min Rain = 0
KSGV 200130Z 13003KT 03/M06 A3026 RMK A01 T00331060  RH  050%=      5-min Rain = 0
KSGV 200135Z 13004KT 04/M06 A3026 RMK A01 T00431058  RH  048%=      5-min Rain = 0
KSGV 200140Z 12004KT 06/M06 A3026 RMK A01 T00571061  RH  043%=      5-min Rain = 0
KSGV 200145Z 11004KT 06/M06 A3026 RMK A01 T00561059  RH  043%=      5-min Rain = 0
KSGV 200150Z 12004KT 06/M06 A3025 RMK A01 T00591060  RH  042%=      5-min Rain = 0
KSGV 200155Z 12004KT 06/M06 A3025 RMK A01 T00611061  RH  041%=      5-min Rain = 0
KSGV 200200Z 13004KT 06/M06 A3025 RMK A01 T00581062  RH  042%=      5-min Rain = 0
KSGV 200205Z 12004KT 06/M06 A3025 RMK A01 T00571061  RH  042%=      5-min Rain = 0
KSGV 200210Z 14004KT 06/M06 A3025 RMK A01 T00561061  RH  043%=      5-min Rain = 0
KSGV 200215Z 14005KT 05/M06 A3025 RMK A01 T00531060  RH  044%=      5-min Rain = 0
KSGV 200220Z 14005KT 05/M06 A3026 RMK A01 T00531059  RH  044%=      5-min Rain = 0
KSGV 200225Z 13005KT 05/M06 A3026 RMK A01 T00541059  RH  044%=      5-min Rain = 0
KSGV 200230Z 13003KT 05/M06 A3027 RMK A01 T00541059  RH  044%=      5-min Rain = 0
KSGV 200235Z 13003KT 05/M06 A3028 RMK A01 T00531061  RH  044%=      5-min Rain = 0
KSGV 200240Z 12001KT 05/M06 A3028 RMK A01 T00501062  RH  044%=      5-min Rain = 0
KSGV 200245Z 12001KT 04/M07 A3028 RMK A01 T00351066  RH  048%=      5-min Rain = 0
KSGV 200250Z 15000KT 01/M07 A3029 RMK A01 T00131065  RH  056%=      5-min Rain = 0
KSGV 200255Z 15001KT 01/M06 A303 RMK A01 T00051064  RH  060%=      5-min Rain = 0
KSGV 200300Z 19001KT 01/M06 A3029 RMK A01 T00051062  RH  061%=      5-min Rain = 0
KSGV 200305Z 19000KT 00/M06 A303 RMK A01 T00041062  RH  062%=      5-min Rain = 0
KSGV 200310Z 21001KT M00/M07 A303 RMK A01 T10031065  RH  063%=      5-min Rain = 0
KSGV 200315Z 18003KT M01/M06 A3029 RMK A01 T10051062  RH  065%=      5-min Rain = 0
KSGV 200320Z 14003KT 01/M06 A3029 RMK A01 T00071058  RH  062%=      5-min Rain = 0
KSGV 200325Z 14004KT 01/M06 A3027 RMK A01 T00141057  RH  059%=      5-min Rain = 0
KSGV 200330Z 15004KT 02/M06 A3027 RMK A01 T00171057  RH  058%=      5-min Rain = 0
KSGV 200335Z 14003KT 02/M06 A3028 RMK A01 T00191055  RH  058%=      5-min Rain = 0
KSGV 200340Z 15004KT 02/M05 A3027 RMK A01 T00231054  RH  057%=      5-min Rain = 0
KSGV 200345Z 15005KT 02/M05 A3027 RMK A01 T00241054  RH  056%=      5-min Rain = 0
KSGV 200350Z 15003KT 03/M05 A3027 RMK A01 T00261052  RH  057%=      5-min Rain = 0
KSGV 200355Z 16003KT 02/M06 A3027 RMK A01 T00211055  RH  057%=      5-min Rain = 0
KSGV 200400Z 17003KT 01/M06 A3027 RMK A01 T00091060  RH  060%=      5-min Rain = 0
KSGV 200405Z 17003KT 00/M06 A3027 RMK A01 T00031059  RH  063%=      5-min Rain = 0
KSGV 200410Z 18004KT 00/M06 A3027 RMK A01 T00031056  RH  064%=      5-min Rain = 0
KSGV 200415Z 18004KT 00/M06 A3027 RMK A01 T00041057  RH  064%=      5-min Rain = 0
KSGV 200420Z 16004KT 00/M06 A3027 RMK A01 T00031058  RH  064%=      5-min Rain = 0
KSGV 200425Z 17004KT 01/M06 A3027 RMK A01 T00051057  RH  063%=      5-min Rain = 0
KSGV 200430Z 17003KT 01/M06 A3028 RMK A01 T00081058  RH  062%=      5-min Rain = 0
KSGV 200435Z 17003KT 00/M06 A3028 RMK A01 T00031059  RH  063%=      5-min Rain = 0
KSGV 200440Z 17004KT 00/M06 A3028 RMK A01 T00031057  RH  064%=      5-min Rain = 0
KSGV 200445Z 18004KT 01/M06 A3028 RMK A01 T00061057  RH  063%=      5-min Rain = 0
KSGV 200450Z 16003KT 00/M06 A3028 RMK A01 T00041058  RH  063%=      5-min Rain = 0
KSGV 200455Z 16003KT 00/M06 A3028 RMK A01 T00041059  RH  063%=      5-min Rain = 0
KSGV 200500Z 16003KT 00/M06 A3028 RMK A01 T00031057  RH  064%=      5-min Rain = 0
KSGV 200505Z 15003KT 01/M05 A3027 RMK A01 T00051054  RH  065%=      5-min Rain = 0
KSGV 200510Z 15003KT 01/M05 A3028 RMK A01 T00091054  RH  063%=      5-min Rain = 0
KSGV 200515Z 16003KT 00/M06 A3028 RMK A01 T00041057  RH  064%=      5-min Rain = 0
KSGV 200520Z 14004KT 00/M06 A3028 RMK A01 T00021057  RH  065%=      5-min Rain = 0
KSGV 200525Z 14004KT 00/M05 A3028 RMK A01 T00041052  RH  066%=      5-min Rain = 0
KSGV 200530Z 15005KT 01/M05 A3028 RMK A01 T00101050  RH  064%=      5-min Rain = 0
KSGV 200535Z 15005KT 01/M05 A3028 RMK A01 T00111050  RH  064%=      5-min Rain = 0
KSGV 200540Z 16004KT 01/M05 A3028 RMK A01 T00091051  RH  065%=      5-min Rain = 0
KSGV 200545Z 16006KT 01/M05 A3028 RMK A01 T00061052  RH  065%=      5-min Rain = 0
KSGV 200550Z 16006KT 00/M05 A3028 RMK A01 T00021051  RH  068%=      5-min Rain = 0
KSGV 200555Z 16006KT 01/M05 A3029 RMK A01 T00071045  RH  068%=      5-min Rain = 0

Page generated in 0.0462 seconds.